Time;durP1;ratioP1;P1;durP2;ratioP2;P2;SDS_P1;SDS_P2;PMS_P1;PMS_P2;Temp;Humidity;BMP_temperature;BMP_pressure;BME280_temperature;BME280_humidity;BME280_pressure;Samples;Min_cycle;Max_cycle;Signal;HPM_P1;HPM_P2
2022/04/18 00:00:11;;;;;;;;;;;;;;;;;;5112483;28;20364;-75
2022/04/18 00:02:37;;;;;;;;;;;;;;;;;;5112562;28;19915;-82
2022/04/18 00:05:03;;;;;;;;;;;;;;;;;;5112692;28;19912;-82
2022/04/18 00:07:29;;;;;;;;;;;;;;;;;;5111868;28;19915;-82
2022/04/18 00:09:55;;;;;;;;;;;;;;;;;;5112772;28;20368;-82
2022/04/18 00:12:20;;;;;;;;;;;;;;;;;;5111739;28;20020;-82
2022/04/18 00:14:46;;;;;;;;;;;;;;;;;;5114423;28;19911;-82
2022/04/18 00:17:12;;;;;;;;;;;;;;;;;;5116485;28;19908;-76
2022/04/18 00:19:38;;;;;;;;;;;;;;;;;;5116330;28;19915;-82
2022/04/18 00:22:04;;;;;;;;;;;;;;;;;;5116612;28;19942;-82
2022/04/18 00:24:30;;;;;;;;;;;;;;;;;;5115823;28;19915;-82
2022/04/18 00:26:56;;;;;;;;;;;;;;;;;;5116573;28;19911;-82
2022/04/18 00:29:22;;;;;;;;;;;;;;;;;;5115740;28;20356;-82
2022/04/18 00:31:48;;;;;;;;;;;;;;;;;;5116532;28;20014;-82
2022/04/18 00:34:14;;;;;;;;;;;;;;;;;;5097633;28;19911;-75
2022/04/18 00:36:40;;;;;;;;;;;;;;;;;;5097834;28;19908;-82
2022/04/18 00:39:06;;;;;;;;;;;;;;;;;;5116345;28;19919;-82
2022/04/18 00:41:32;;;;;;;;;;;;;;;;;;5115478;28;19908;-82
2022/04/18 00:43:58;;;;;;;;;;;;;;;;;;5116250;28;19907;-82
2022/04/18 00:46:24;;;;;;;;;;;;;;;;;;5115329;28;19915;-82
2022/04/18 00:48:49;;;;;;;;;;;;;;;;;;5116115;28;20375;-82
2022/04/18 00:51:15;;;;;;;;;;;;;;;;;;5115634;28;20353;-75
2022/04/18 00:53:41;;;;;;;;;;;;;;;;;;5115557;28;19931;-82
2022/04/18 00:56:07;;;;;;;;;;;;;;;;;;5116012;28;19908;-82
2022/04/18 00:58:33;;;;;;;;;;;;;;;;;;5115102;28;19908;-82
2022/04/18 01:00:59;;;;;;;;;;;;;;;;;;5115962;28;19912;-82
2022/04/18 01:03:25;;;;;;;;;;;;;;;;;;5096813;28;19942;-82
2022/04/18 01:05:51;;;;;;;;;;;;;;;;;;5115911;28;19908;-82
2022/04/18 01:08:17;;;;;;;;;;;;;;;;;;5115210;28;19957;-76
2022/04/18 01:10:43;;;;;;;;;;;;;;;;;;5115646;28;19908;-82
2022/04/18 01:13:09;;;;;;;;;;;;;;;;;;5115617;28;19911;-82
2022/04/18 01:15:35;;;;;;;;;;;;;;;;;;5114887;28;19935;-82
2022/04/18 01:18:01;;;;;;;;;;;;;;;;;;5115572;28;19991;-82
2022/04/18 01:20:27;;;;;;;;;;;;;;;;;;5114754;28;19979;-82
2022/04/18 01:22:53;;;;;;;;;;;;;;;;;;5115437;28;19916;-82
2022/04/18 01:30:48;;;;;;;;;;;;;;;;;;5115456;28;19915;-82
2022/04/18 01:33:14;;;;;;;;;;;;;;;;;;5115185;28;19912;-82
2022/04/18 01:35:40;;;;;;;;;;;;;;;;;;5114442;28;20283;-82
2022/04/18 01:38:06;;;;;;;;;;;;;;;;;;5115155;28;19908;-83
2022/04/18 01:40:31;;;;;;;;;;;;;;;;;;5096075;28;19915;-82
2022/04/18 01:42:57;;;;;;;;;;;;;;;;;;5115185;28;19911;-82
2022/04/18 01:45:23;;;;;;;;;;;;;;;;;;5114258;28;19935;-82
2022/04/18 01:47:49;;;;;;;;;;;;;;;;;;5114957;28;20390;-82
2022/04/18 01:50:15;;;;;;;;;;;;;;;;;;5115044;28;19914;-82
2022/04/18 01:52:41;;;;;;;;;;;;;;;;;;5113757;28;20010;-82
2022/04/18 01:55:07;;;;;;;;;;;;;;;;;;5114906;28;20382;-82
2022/04/18 01:57:33;;;;;;;;;;;;;;;;;;5114055;28;19907;-82
2022/04/18 02:00:00;;;;;;;;;;;;;;;;;;5114747;28;20364;-82
2022/04/18 02:02:26;;;;;;;;;;;;;;;;;;5113938;28;19915;-81
2022/04/18 02:04:51;;;;;;;;;;;;;;;;;;5096382;28;19908;-82
2022/04/18 02:07:17;;;;;;;;;;;;;;;;;;5096302;28;19992;-78
2022/04/18 02:09:43;;;;;;;;;;;;;;;;;;5114013;28;19907;-82
2022/04/18 02:12:09;;;;;;;;;;;;;;;;;;5114454;28;19908;-82
2022/04/18 02:14:35;;;;;;;;;;;;;;;;;;5113662;28;20310;-82
2022/04/18 02:17:01;;;;;;;;;;;;;;;;;;5114456;28;19931;-82
2022/04/18 02:19:27;;;;;;;;;;;;;;;;;;5113537;28;19908;-81
2022/04/18 02:21:53;;;;;;;;;;;;;;;;;;5114197;28;19933;-82
2022/04/18 02:24:19;;;;;;;;;;;;;;;;;;5095877;28;19915;-76
2022/04/18 02:26:44;;;;;;;;;;;;;;;;;;5113646;28;20002;-82
2022/04/18 02:29:11;;;;;;;;;;;;;;;;;;5114210;28;19908;-82
2022/04/18 02:32:47;;;;;;;;;;;;;;;;;;5113366;28;19915;-82
2022/04/18 02:34:22;;;;;;;;;;;;;;;;;;5113361;28;19911;-75
2022/04/18 02:36:48;;;;;;;;;;;;;;;;;;5113142;28;19933;-82
2022/04/18 02:39:14;;;;;;;;;;;;;;;;;;5113973;28;20338;-82
2022/04/18 02:41:40;;;;;;;;;;;;;;;;;;5113165;28;19914;-82
2022/04/18 02:44:06;;;;;;;;;;;;;;;;;;5113986;28;19912;-81
2022/04/18 02:46:32;;;;;;;;;;;;;;;;;;5094781;28;19915;-82
2022/04/18 02:48:58;;;;;;;;;;;;;;;;;;5095473;28;20352;-82
2022/04/18 02:51:27;;;;;;;;;;;;;;;;;;5113191;28;19914;-76
2022/04/18 02:53:53;;;;;;;;;;;;;;;;;;5095185;28;20419;-82
2022/04/18 02:56:19;;;;;;;;;;;;;;;;;;5113637;28;19912;-82
2022/04/18 02:58:45;;;;;;;;;;;;;;;;;;5121856;27;20289;-82
2022/04/18 03:01:11;;;;;;;;;;;;;;;;;;5116469;27;19957;-82
2022/04/18 03:03:37;;;;;;;;;;;;;;;;;;5094414;28;20375;-82
2022/04/18 03:06:04;;;;;;;;;;;;;;;;;;5095128;28;19951;-83
2022/04/18 03:08:30;;;;;;;;;;;;;;;;;;5094272;28;19908;-82
2022/04/18 03:11:08;;;;;;;;;;;;;;;;;;5113317;28;20368;-82
2022/04/18 03:13:34;;;;;;;;;;;;;;;;;;5117765;27;20348;-81
2022/04/18 03:16:00;;;;;;;;;;;;;;;;;;5124543;27;19908;-82
2022/04/18 03:18:26;;;;;;;;;;;;;;;;;;5094323;28;19915;-75
2022/04/18 03:20:52;;;;;;;;;;;;;;;;;;5113244;28;20387;-82
2022/04/18 03:23:17;;;;;;;;;;;;;;;;;;5124585;27;19954;-82
2022/04/18 03:25:43;;;;;;;;;;;;;;;;;;5114537;27;20466;-82
2022/04/18 03:28:09;;;;;;;;;;;;;;;;;;5133688;27;19915;-82
2022/04/18 03:30:35;;;;;;;;;;;;;;;;;;5106728;27;20329;-82
2022/04/18 03:33:01;;;;;;;;;;;;;;;;;;5133536;27;19958;-82
2022/04/18 03:35:27;;;;;;;;;;;;;;;;;;5110888;27;20002;-76
2022/04/18 03:40:37;;;;;;;;;;;;;;;;;;5132787;27;19953;-81
2022/04/18 03:43:03;;;;;;;;;;;;;;;;;;5133486;27;19907;-81
2022/04/18 03:45:29;;;;;;;;;;;;;;;;;;5105071;27;19969;-81
2022/04/18 03:47:55;;;;;;;;;;;;;;;;;;5133337;27;19914;-82
2022/04/18 03:50:21;;;;;;;;;;;;;;;;;;5133335;27;20321;-82
2022/04/18 03:52:47;;;;;;;;;;;;;;;;;;5132399;27;19923;-82
2022/04/18 03:55:13;;;;;;;;;;;;;;;;;;5133356;28;19907;-82
2022/04/18 03:57:39;;;;;;;;;;;;;;;;;;5132546;28;19950;-82
2022/04/18 04:00:04;;;;;;;;;;;;;;;;;;5133310;28;19907;-82
2022/04/18 04:02:30;;;;;;;;;;;;;;;;;;5114098;28;19960;-81
2022/04/18 04:04:56;;;;;;;;;;;;;;;;;;5114782;28;19911;-82
2022/04/18 04:07:22;;;;;;;;;;;;;;;;;;5117878;28;20372;-82
2022/04/18 04:09:48;;;;;;;;;;;;;;;;;;5130722;28;20037;-80
2022/04/18 04:12:14;;;;;;;;;;;;;;;;;;5133160;28;20378;-81
2022/04/18 04:14:40;;;;;;;;;;;;;;;;;;5132335;28;19908;-82
2022/04/18 04:17:06;;;;;;;;;;;;;;;;;;5133124;28;20305;-82
2022/04/18 04:19:32;;;;;;;;;;;;;;;;;;5131942;28;19939;-81
2022/04/18 04:21:57;;;;;;;;;;;;;;;;;;5129740;28;20283;-81
2022/04/18 04:24:23;;;;;;;;;;;;;;;;;;5133051;28;19918;-81
2022/04/18 04:26:49;;;;;;;;;;;;;;;;;;5132262;28;19899;-81
2022/04/18 04:29:15;;;;;;;;;;;;;;;;;;5133060;28;19907;-81
2022/04/18 04:31:41;;;;;;;;;;;;;;;;;;5132245;28;20374;-81
2022/04/18 04:34:10;;;;;;;;;;;;;;;;;;5114492;28;19955;-81
2022/04/18 04:36:36;;;;;;;;;;;;;;;;;;5113750;28;19908;-81
2022/04/18 04:39:02;;;;;;;;;;;;;;;;;;5099260;28;19935;-81
2022/04/18 04:41:27;;;;;;;;;;;;;;;;;;5132729;28;19907;-75
2022/04/18 04:43:53;;;;;;;;;;;;;;;;;;5129442;28;19912;-82
2022/04/18 04:46:19;;;;;;;;;;;;;;;;;;5094058;28;19908;-82
2022/04/18 04:48:45;;;;;;;;;;;;;;;;;;5111484;28;19908;-81
2022/04/18 04:51:11;;;;;;;;;;;;;;;;;;5117347;28;19914;-81
2022/04/18 04:53:37;;;;;;;;;;;;;;;;;;5111183;28;19928;-81
2022/04/18 04:56:03;;;;;;;;;;;;;;;;;;5112193;28;19912;-81
2022/04/18 04:58:29;;;;;;;;;;;;;;;;;;5093658;28;20360;-76
2022/04/18 05:00:55;;;;;;;;;;;;;;;;;;5113697;28;19996;-82
2022/04/18 05:03:20;;;;;;;;;;;;;;;;;;5115974;28;20350;-82
2022/04/18 05:05:47;;;;;;;;;;;;;;;;;;5115062;28;19911;-82
2022/04/18 05:08:13;;;;;;;;;;;;;;;;;;5128522;27;19907;-81
2022/04/18 05:10:39;;;;;;;;;;;;;;;;;;5135537;27;19907;-81
2022/04/18 05:13:05;;;;;;;;;;;;;;;;;;5117844;27;19962;-82
2022/04/18 05:15:31;;;;;;;;;;;;;;;;;;5135934;27;19911;-75
2022/04/18 05:17:56;;;;;;;;;;;;;;;;;;5135854;27;20292;-82
2022/04/18 05:20:22;;;;;;;;;;;;;;;;;;5136164;27;19912;-82
2022/04/18 05:22:50;;;;;;;;;;;;;;;;;;5116908;27;19916;-82
2022/04/18 05:25:16;;;;;;;;;;;;;;;;;;5136020;27;19956;-82
2022/04/18 05:27:42;;;;;;;;;;;;;;;;;;5129684;27;19908;-81
2022/04/18 05:30:08;;;;;;;;;;;;;;;;;;5115417;28;19915;-82
2022/04/18 05:32:34;;;;;;;;;;;;;;;;;;5114494;28;20003;-75
2022/04/18 05:35:00;;;;;;;;;;;;;;;;;;5115260;28;19934;-82
2022/04/18 05:37:26;;;;;;;;;;;;;;;;;;5115183;28;20330;-82
2022/04/18 05:39:52;;;;;;;;;;;;;;;;;;5114376;28;19904;-82
2022/04/18 05:42:18;;;;;;;;;;;;;;;;;;5115113;28;19978;-83
2022/04/18 05:44:43;;;;;;;;;;;;;;;;;;5114358;28;19915;-83
2022/04/18 05:47:09;;;;;;;;;;;;;;;;;;5126132;27;20001;-83
2022/04/18 05:49:35;;;;;;;;;;;;;;;;;;5134819;27;20313;-79
2022/04/18 05:52:01;;;;;;;;;;;;;;;;;;5135219;27;19907;-82
2022/04/18 05:54:27;;;;;;;;;;;;;;;;;;5135422;27;19912;-83
2022/04/18 05:56:53;;;;;;;;;;;;;;;;;;5126143;27;20481;-83
2022/04/18 05:59:19;;;;;;;;;;;;;;;;;;5116912;27;19908;-83
2022/04/18 06:01:45;;;;;;;;;;;;;;;;;;5098761;28;19908;-83
2022/04/18 06:04:11;;;;;;;;;;;;;;;;;;5114838;28;19907;-83
2022/04/18 06:06:37;;;;;;;;;;;;;;;;;;5113867;28;19912;-82
2022/04/18 06:09:03;;;;;;;;;;;;;;;;;;5114613;28;20352;-82
2022/04/18 06:11:29;;;;;;;;;;;;;;;;;;5114578;28;19908;-83
2022/04/18 06:13:55;;;;;;;;;;;;;;;;;;5113680;28;19907;-82
2022/04/18 06:16:21;;;;;;;;;;;;;;;;;;5114448;28;20375;-82
2022/04/18 06:18:47;;;;;;;;;;;;;;;;;;5113585;28;19911;-81
2022/04/18 06:21:13;;;;;;;;;;;;;;;;;;5114376;28;20410;-81
2022/04/18 06:23:39;;;;;;;;;;;;;;;;;;5113936;28;19923;-81
2022/04/18 06:26:05;;;;;;;;;;;;;;;;;;5114390;28;19908;-83
2022/04/18 06:28:31;;;;;;;;;;;;;;;;;;5095944;28;20261;-81
2022/04/18 06:30:57;;;;;;;;;;;;;;;;;;5095094;28;19918;-81
2022/04/18 06:33:22;;;;;;;;;;;;;;;;;;5116456;28;20328;-80
2022/04/18 06:35:48;;;;;;;;;;;;;;;;;;5128705;27;19912;-80
2022/04/18 06:38:14;;;;;;;;;;;;;;;;;;5116161;27;20279;-75
2022/04/18 06:40:40;;;;;;;;;;;;;;;;;;5133791;27;19908;-75
2022/04/18 06:43:06;;;;;;;;;;;;;;;;;;5116087;27;19907;-76
2022/04/18 06:45:32;;;;;;;;;;;;;;;;;;5134535;27;19942;-71
2022/04/18 06:47:58;;;;;;;;;;;;;;;;;;5133487;27;20018;-77
2022/04/18 06:50:24;;;;;;;;;;;;;;;;;;5127086;27;19911;-76
2022/04/18 06:52:50;;;;;;;;;;;;;;;;;;5119222;27;19947;-75
2022/04/18 06:55:16;;;;;;;;;;;;;;;;;;5119816;27;19915;-75
2022/04/18 06:57:42;;;;;;;;;;;;;;;;;;5118797;27;20348;-75
2022/04/18 07:00:08;;;;;;;;;;;;;;;;;;5132065;27;20670;-75
2022/04/18 07:02:34;;;;;;;;;;;;;;;;;;5130859;27;20040;-75
2022/04/18 07:05:00;;;;;;;;;;;;;;;;;;5119222;27;20272;-76
2022/04/18 07:07:26;;;;;;;;;;;;;;;;;;5110099;28;20483;-76
2022/04/18 07:09:52;;;;;;;;;;;;;;;;;;5109339;28;19908;-74
2022/04/18 07:12:18;;;;;;;;;;;;;;;;;;5109629;28;19911;-75
2022/04/18 07:14:43;;;;;;;;;;;;;;;;;;5118029;27;19919;-75
2022/04/18 07:17:09;;;;;;;;;;;;;;;;;;5130495;27;19984;-75
2022/04/18 07:19:35;;;;;;;;;;;;;;;;;;5130488;27;19912;-74
2022/04/18 07:22:02;;;;;;;;;;;;;;;;;;5129724;27;19911;-75
2022/04/18 07:24:28;;;;;;;;;;;;;;;;;;5119701;27;19994;-74
2022/04/18 07:26:54;;;;;;;;;;;;;;;;;;5119222;27;20055;-74
2022/04/18 07:29:19;;;;;;;;;;;;;;;;;;5130139;27;19907;-73
2022/04/18 07:31:45;;;;;;;;;;;;;;;;;;5128113;27;19912;-74
2022/04/18 07:34:11;;;;;;;;;;;;;;;;;;5119833;27;19916;-73
2022/04/18 07:36:37;;;;;;;;;;;;;;;;;;5109068;28;20402;-73
2022/04/18 07:39:03;;;;;;;;;;;;;;;;;;5109058;28;19916;-73
2022/04/18 07:41:29;;;;;;;;;;;;;;;;;;5114987;27;19912;-76
2022/04/18 07:43:55;;;;;;;;;;;;;;;;;;5115017;27;20429;-77
2022/04/18 07:46:21;;;;;;;;;;;;;;;;;;5093518;28;20006;-76
2022/04/18 07:48:47;;;;;;;;;;;;;;;;;;5128805;27;19915;-76
2022/04/18 07:53:57;;;;;;;;;;;;;;;;;;5128931;27;20030;-74
2022/04/18 07:56:23;;;;;;;;;;;;;;;;;;5129985;28;20001;-74
2022/04/18 07:58:50;;;;;;;;;;;;;;;;;;5122423;28;20010;-73
2022/04/18 08:01:16;;;;;;;;;;;;;;;;;;5127349;28;19912;-75
2022/04/18 08:03:42;;;;;;;;;;;;;;;;;;5102529;28;19927;-76
2022/04/18 08:06:08;;;;;;;;;;;;;;;;;;5108575;28;19908;-74
2022/04/18 08:08:34;;;;;;;;;;;;;;;;;;5130048;28;19912;-75
2022/04/18 08:11:00;;;;;;;;;;;;;;;;;;5123190;28;19914;-77
2022/04/18 08:13:26;;;;;;;;;;;;;;;;;;5120908;28;19911;-76
2022/04/18 08:15:52;;;;;;;;;;;;;;;;;;5098979;28;19930;-76
2022/04/18 08:18:18;;;;;;;;;;;;;;;;;;5121181;28;20423;-76
2022/04/18 08:20:44;;;;;;;;;;;;;;;;;;5098987;28;19994;-76
2022/04/18 08:23:10;;;;;;;;;;;;;;;;;;5119231;28;19924;-77
2022/04/18 08:25:36;;;;;;;;;;;;;;;;;;5117098;28;20702;-75
2022/04/18 08:28:02;;;;;;;;;;;;;;;;;;5116452;28;19904;-75
2022/04/18 08:30:28;;;;;;;;;;;;;;;;;;5129658;28;19907;-73
2022/04/18 08:32:54;;;;;;;;;;;;;;;;;;5128813;28;19911;-74
2022/04/18 08:35:20;;;;;;;;;;;;;;;;;;5116811;27;19912;-77
2022/04/18 08:37:46;;;;;;;;;;;;;;;;;;5128852;27;20071;-76
2022/04/18 08:40:12;;;;;;;;;;;;;;;;;;5116846;27;19920;-77
2022/04/18 08:42:37;;;;;;;;;;;;;;;;;;5115469;27;19911;-76
2022/04/18 08:45:04;;;;;;;;;;;;;;;;;;5132513;27;20443;-77
2022/04/18 08:52:59;;;;;;;;;;;;;;;;;;5132144;27;19949;-73
2022/04/18 08:55:25;;;;;;;;;;;;;;;;;;5132944;27;20359;-75
2022/04/18 08:57:51;;;;;;;;;;;;;;;;;;5113776;27;19960;-75
2022/04/18 09:00:18;;;;;;;;;;;;;;;;;;5132848;27;19915;-74
2022/04/18 09:02:44;;;;;;;;;;;;;;;;;;5131904;27;19915;-75
2022/04/18 09:05:10;;;;;;;;;;;;;;;;;;5112364;27;19940;-74
2022/04/18 09:07:36;;;;;;;;;;;;;;;;;;5108429;27;20365;-73
2022/04/18 09:10:02;;;;;;;;;;;;;;;;;;5120290;27;19976;-77
2022/04/18 09:12:28;;;;;;;;;;;;;;;;;;5125650;27;19912;-76
2022/04/18 09:14:54;;;;;;;;;;;;;;;;;;5127535;27;19915;-75
2022/04/18 09:17:20;;;;;;;;;;;;;;;;;;5127966;27;19911;-77
2022/04/18 09:19:46;;;;;;;;;;;;;;;;;;5132498;27;19911;-74
2022/04/18 09:22:13;;;;;;;;;;;;;;;;;;5130671;27;19986;-76
2022/04/18 09:24:39;;;;;;;;;;;;;;;;;;5132516;27;19908;-76
2022/04/18 09:27:06;;;;;;;;;;;;;;;;;;5131053;27;20784;-74
2022/04/18 09:29:33;;;;;;;;;;;;;;;;;;5132044;27;19912;-74
2022/04/18 09:31:59;;;;;;;;;;;;;;;;;;5131578;27;20320;-73
2022/04/18 09:34:25;;;;;;;;;;;;;;;;;;5132183;27;20422;-73
2022/04/18 09:36:51;;;;;;;;;;;;;;;;;;5131375;27;19908;-73
2022/04/18 09:39:17;;;;;;;;;;;;;;;;;;5131519;27;20287;-73
2022/04/18 09:41:43;;;;;;;;;;;;;;;;;;5128169;27;19923;-74
2022/04/18 09:44:09;;;;;;;;;;;;;;;;;;5116472;27;19919;-76
2022/04/18 09:46:35;;;;;;;;;;;;;;;;;;5131799;27;20371;-75
2022/04/18 09:49:01;;;;;;;;;;;;;;;;;;5131274;27;20001;-75
2022/04/18 09:51:27;;;;;;;;;;;;;;;;;;5112960;27;20036;-73
2022/04/18 09:53:53;;;;;;;;;;;;;;;;;;5130800;27;19928;-73
2022/04/18 09:56:19;;;;;;;;;;;;;;;;;;5131958;27;19912;-73
2022/04/18 09:58:45;;;;;;;;;;;;;;;;;;5131645;27;19918;-73
2022/04/18 10:01:11;;;;;;;;;;;;;;;;;;5131254;27;20387;-72
2022/04/18 10:03:37;;;;;;;;;;;;;;;;;;5131170;27;19908;-74
2022/04/18 10:06:02;;;;;;;;;;;;;;;;;;5112325;27;19907;-73
2022/04/18 10:08:28;;;;;;;;;;;;;;;;;;5131716;27;20363;-72
2022/04/18 10:10:54;;;;;;;;;;;;;;;;;;5130796;27;20280;-74
2022/04/18 10:13:21;;;;;;;;;;;;;;;;;;5129229;27;19922;-73
2022/04/18 10:15:47;;;;;;;;;;;;;;;;;;5119963;27;20371;-76
2022/04/18 10:18:14;;;;;;;;;;;;;;;;;;5130693;27;19958;-77
2022/04/18 10:20:40;;;;;;;;;;;;;;;;;;5126314;27;19912;-77
2022/04/18 10:23:06;;;;;;;;;;;;;;;;;;5128004;27;19929;-77
2022/04/18 10:25:33;;;;;;;;;;;;;;;;;;5121530;27;19912;-75
2022/04/18 10:27:59;;;;;;;;;;;;;;;;;;5112193;27;19912;-73
2022/04/18 10:30:25;;;;;;;;;;;;;;;;;;5131059;27;20430;-69
2022/04/18 10:32:51;;;;;;;;;;;;;;;;;;5130498;27;19915;-73
2022/04/18 10:35:16;;;;;;;;;;;;;;;;;;5130773;27;20321;-75
2022/04/18 10:37:42;;;;;;;;;;;;;;;;;;5131061;27;19911;-72
2022/04/18 10:40:08;;;;;;;;;;;;;;;;;;5129239;27;20068;-71
2022/04/18 10:42:34;;;;;;;;;;;;;;;;;;5131024;27;19911;-75
2022/04/18 10:45:00;;;;;;;;;;;;;;;;;;5130470;27;19907;-76
2022/04/18 10:47:26;;;;;;;;;;;;;;;;;;5130951;27;19923;-71
2022/04/18 10:49:52;;;;;;;;;;;;;;;;;;5127874;27;19961;-77
2022/04/18 10:52:18;;;;;;;;;;;;;;;;;;5102469;27;20428;-77
2022/04/18 10:54:44;;;;;;;;;;;;;;;;;;5112353;27;19960;-76
2022/04/18 10:57:13;;;;;;;;;;;;;;;;;;5129852;27;20280;-76
2022/04/18 10:59:41;;;;;;;;;;;;;;;;;;5111889;27;19956;-73
2022/04/18 11:02:07;;;;;;;;;;;;;;;;;;5129812;27;19949;-74
2022/04/18 11:04:33;;;;;;;;;;;;;;;;;;5130161;27;19954;-74
2022/04/18 11:06:59;;;;;;;;;;;;;;;;;;5130120;27;19949;-80
2022/04/18 11:09:25;;;;;;;;;;;;;;;;;;5112238;27;19943;-71
2022/04/18 11:11:51;;;;;;;;;;;;;;;;;;5111828;27;19973;-76
2022/04/18 11:14:17;;;;;;;;;;;;;;;;;;5130541;27;19967;-73
2022/04/18 11:16:43;;;;;;;;;;;;;;;;;;5130343;27;20002;-72
2022/04/18 11:19:09;;;;;;;;;;;;;;;;;;5130155;27;19915;-75
2022/04/18 11:21:35;;;;;;;;;;;;;;;;;;5130229;27;20010;-73
2022/04/18 11:24:01;;;;;;;;;;;;;;;;;;5127766;27;19944;-74
2022/04/18 11:26:26;;;;;;;;;;;;;;;;;;5129868;27;19981;-73
2022/04/18 11:28:53;;;;;;;;;;;;;;;;;;5129205;27;19914;-77
2022/04/18 11:31:19;;;;;;;;;;;;;;;;;;5129620;27;19908;-74
2022/04/18 11:33:45;;;;;;;;;;;;;;;;;;5111808;27;19938;-73
2022/04/18 11:36:10;;;;;;;;;;;;;;;;;;5111134;27;20516;-73
2022/04/18 11:38:36;;;;;;;;;;;;;;;;;;5129815;27;19918;-73
2022/04/18 11:41:02;;;;;;;;;;;;;;;;;;5129469;27;20360;-73
2022/04/18 11:43:29;;;;;;;;;;;;;;;;;;5130290;27;19908;-73
2022/04/18 11:45:54;;;;;;;;;;;;;;;;;;5129703;27;20003;-77
2022/04/18 11:48:21;;;;;;;;;;;;;;;;;;5130260;27;19955;-74
2022/04/18 11:50:46;;;;;;;;;;;;;;;;;;5129496;27;19914;-74
2022/04/18 11:53:12;;;;;;;;;;;;;;;;;;5128987;27;20052;-74
2022/04/18 11:55:38;;;;;;;;;;;;;;;;;;5130142;27;19956;-74
2022/04/18 11:58:04;;;;;;;;;;;;;;;;;;5129226;28;19955;-74
2022/04/18 12:08:44;;;;;;;;;;;;;;;;;;5130204;27;19956;-74
2022/04/18 12:11:10;;;;;;;;;;;;;;;;;;5133540;27;19907;-74
2022/04/18 12:13:36;;;;;;;;;;;;;;;;;;5133988;27;19915;-74
2022/04/18 12:16:02;;;;;;;;;;;;;;;;;;5132705;27;19918;-74
2022/04/18 12:18:28;;;;;;;;;;;;;;;;;;5134058;27;20018;-74
2022/04/18 12:20:53;;;;;;;;;;;;;;;;;;5134016;27;19908;-77
2022/04/18 12:23:19;;;;;;;;;;;;;;;;;;5133300;27;19916;-73
2022/04/18 12:25:45;;;;;;;;;;;;;;;;;;5137303;27;19907;-73
2022/04/18 12:28:11;;;;;;;;;;;;;;;;;;5136468;27;20366;-73
2022/04/18 12:30:37;;;;;;;;;;;;;;;;;;5137332;27;20275;-73
2022/04/18 12:33:03;;;;;;;;;;;;;;;;;;5136278;27;20279;-73
2022/04/18 12:35:29;;;;;;;;;;;;;;;;;;5137095;27;19907;-73
2022/04/18 12:37:55;;;;;;;;;;;;;;;;;;5136821;27;19911;-77
2022/04/18 12:40:21;;;;;;;;;;;;;;;;;;5136652;27;19933;-73
2022/04/18 12:42:47;;;;;;;;;;;;;;;;;;5136924;27;20390;-73
2022/04/18 12:45:13;;;;;;;;;;;;;;;;;;5136167;27;19907;-73
2022/04/18 12:47:40;;;;;;;;;;;;;;;;;;5118488;27;19930;-73
2022/04/18 12:50:06;;;;;;;;;;;;;;;;;;5117562;27;19915;-73
2022/04/18 12:52:31;;;;;;;;;;;;;;;;;;5136570;27;19923;-73
2022/04/18 12:54:57;;;;;;;;;;;;;;;;;;5136183;27;19967;-77
2022/04/18 12:57:23;;;;;;;;;;;;;;;;;;5136495;27;19908;-73
2022/04/18 12:59:49;;;;;;;;;;;;;;;;;;5136553;27;19908;-73
2022/04/18 13:02:15;;;;;;;;;;;;;;;;;;5135856;27;20707;-73
2022/04/18 13:04:41;;;;;;;;;;;;;;;;;;5136587;27;20253;-73
2022/04/18 13:07:07;;;;;;;;;;;;;;;;;;5135755;27;19912;-73
2022/04/18 13:09:33;;;;;;;;;;;;;;;;;;5136442;27;19938;-73
2022/04/18 13:11:59;;;;;;;;;;;;;;;;;;5135905;27;19908;-77
2022/04/18 13:14:25;;;;;;;;;;;;;;;;;;5136126;27;20321;-73
2022/04/18 13:16:50;;;;;;;;;;;;;;;;;;5136318;27;19912;-73
2022/04/18 13:19:17;;;;;;;;;;;;;;;;;;5135466;27;20198;-73
2022/04/18 13:21:43;;;;;;;;;;;;;;;;;;5135513;27;20363;-73
2022/04/18 13:24:08;;;;;;;;;;;;;;;;;;5135284;27;19922;-73
2022/04/18 13:26:35;;;;;;;;;;;;;;;;;;5136087;27;19954;-74
2022/04/18 13:29:01;;;;;;;;;;;;;;;;;;5135426;27;19908;-77
2022/04/18 13:31:27;;;;;;;;;;;;;;;;;;5136262;27;20370;-73
2022/04/18 13:33:52;;;;;;;;;;;;;;;;;;5136019;27;20275;-73
2022/04/18 13:36:30;;;;;;;;;;;;;;;;;;5135137;27;19903;-73
2022/04/18 13:38:56;;;;;;;;;;;;;;;;;;5135933;27;20355;-73
2022/04/18 13:41:23;;;;;;;;;;;;;;;;;;5116677;27;20036;-73
2022/04/18 13:43:49;;;;;;;;;;;;;;;;;;5135823;27;19914;-76
2022/04/18 13:46:15;;;;;;;;;;;;;;;;;;5134802;27;19907;-73
2022/04/18 13:48:44;;;;;;;;;;;;;;;;;;5135651;27;19907;-72
2022/04/18 13:51:10;;;;;;;;;;;;;;;;;;5111085;28;19912;-71
2022/04/18 13:53:36;;;;;;;;;;;;;;;;;;5125097;27;19930;-76
2022/04/18 13:56:02;;;;;;;;;;;;;;;;;;5114302;28;19939;-76
2022/04/18 13:58:28;;;;;;;;;;;;;;;;;;5114331;28;19912;-76
2022/04/18 14:00:54;;;;;;;;;;;;;;;;;;5115114;27;19915;-74
2022/04/18 14:03:20;;;;;;;;;;;;;;;;;;5113905;28;19908;-76
2022/04/18 14:05:46;;;;;;;;;;;;;;;;;;5114652;28;19963;-74
2022/04/18 14:08:12;;;;;;;;;;;;;;;;;;5113918;28;20360;-71
2022/04/18 14:10:38;;;;;;;;;;;;;;;;;;5114572;28;19912;-72
2022/04/18 14:13:04;;;;;;;;;;;;;;;;;;5113669;28;19912;-73
2022/04/18 14:20:59;;;;;;;;;;;;;;;;;;5114459;28;19918;-75
2022/04/18 14:23:25;;;;;;;;;;;;;;;;;;5122899;27;20010;-74
2022/04/18 14:25:51;;;;;;;;;;;;;;;;;;5135134;27;19907;-73
2022/04/18 14:28:17;;;;;;;;;;;;;;;;;;5134091;27;19907;-75
2022/04/18 14:30:43;;;;;;;;;;;;;;;;;;5134882;27;19907;-72
2022/04/18 14:33:09;;;;;;;;;;;;;;;;;;5133130;27;19912;-75
2022/04/18 14:35:35;;;;;;;;;;;;;;;;;;5134738;27;19933;-77
2022/04/18 14:38:02;;;;;;;;;;;;;;;;;;5134669;27;20444;-71
2022/04/18 14:40:29;;;;;;;;;;;;;;;;;;5134180;27;19998;-74
2022/04/18 14:42:54;;;;;;;;;;;;;;;;;;5116074;27;19908;-71
2022/04/18 14:45:20;;;;;;;;;;;;;;;;;;5133293;27;20413;-78
2022/04/18 14:47:46;;;;;;;;;;;;;;;;;;5134417;27;19950;-72
2022/04/18 14:50:12;;;;;;;;;;;;;;;;;;5133644;27;19956;-76
2022/04/18 14:52:38;;;;;;;;;;;;;;;;;;5133929;27;19977;-77
2022/04/18 14:55:04;;;;;;;;;;;;;;;;;;5133924;27;20275;-77
2022/04/18 14:57:30;;;;;;;;;;;;;;;;;;5133719;27;19915;-66
2022/04/18 14:59:56;;;;;;;;;;;;;;;;;;5134218;27;19907;-66
2022/04/18 15:02:22;;;;;;;;;;;;;;;;;;5133344;27;19956;-66
2022/04/18 15:04:48;;;;;;;;;;;;;;;;;;5134017;27;19920;-64
2022/04/18 15:07:14;;;;;;;;;;;;;;;;;;5133289;27;19912;-65
2022/04/18 15:09:40;;;;;;;;;;;;;;;;;;5133966;27;19907;-65
2022/04/18 15:12:06;;;;;;;;;;;;;;;;;;5133513;27;20264;-68
2022/04/18 15:14:32;;;;;;;;;;;;;;;;;;5133549;27;19944;-65
2022/04/18 15:16:58;;;;;;;;;;;;;;;;;;5123360;27;19961;-66
2022/04/18 15:19:23;;;;;;;;;;;;;;;;;;5120109;27;20337;-66
2022/04/18 15:21:49;;;;;;;;;;;;;;;;;;5133748;27;19915;-69
2022/04/18 15:24:15;;;;;;;;;;;;;;;;;;5124384;27;19958;-70
2022/04/18 15:26:41;;;;;;;;;;;;;;;;;;5113179;28;20336;-72
2022/04/18 15:29:07;;;;;;;;;;;;;;;;;;5109014;27;20006;-72
2022/04/18 15:34:17;;;;;;;;;;;;;;;;;;5132635;27;20029;-69
2022/04/18 15:36:43;;;;;;;;;;;;;;;;;;5127873;27;20387;-70
2022/04/18 15:39:09;;;;;;;;;;;;;;;;;;5116768;27;20009;-72
2022/04/18 15:41:35;;;;;;;;;;;;;;;;;;5133045;27;20411;-69
2022/04/18 15:44:01;;;;;;;;;;;;;;;;;;5133171;27;19978;-68
2022/04/18 15:46:27;;;;;;;;;;;;;;;;;;5132870;27;19907;-68
2022/04/18 15:48:53;;;;;;;;;;;;;;;;;;5133402;27;19908;-67
2022/04/18 15:51:19;;;;;;;;;;;;;;;;;;5114186;28;20351;-70
2022/04/18 15:53:45;;;;;;;;;;;;;;;;;;5128820;27;19924;-65
2022/04/18 15:56:12;;;;;;;;;;;;;;;;;;5111482;28;20139;-69
2022/04/18 15:58:38;;;;;;;;;;;;;;;;;;5133274;27;20002;-68
2022/04/18 16:01:04;;;;;;;;;;;;;;;;;;5132796;28;20355;-68
2022/04/18 16:03:29;;;;;;;;;;;;;;;;;;5115802;28;19923;-66
2022/04/18 16:05:55;;;;;;;;;;;;;;;;;;5133218;28;19907;-66
2022/04/18 16:08:21;;;;;;;;;;;;;;;;;;5132365;28;19947;-64
2022/04/18 16:10:47;;;;;;;;;;;;;;;;;;5114811;28;20334;-68
2022/04/18 16:13:14;;;;;;;;;;;;;;;;;;5132393;28;19965;-68
2022/04/18 16:15:40;;;;;;;;;;;;;;;;;;5118607;28;19912;-67
2022/04/18 16:18:06;;;;;;;;;;;;;;;;;;5112427;28;19915;-74
2022/04/18 16:20:32;;;;;;;;;;;;;;;;;;5111758;28;19912;-74
2022/04/18 16:22:58;;;;;;;;;;;;;;;;;;5112487;28;20011;-75
2022/04/18 16:25:24;;;;;;;;;;;;;;;;;;5093581;28;20068;-74
2022/04/18 16:27:50;;;;;;;;;;;;;;;;;;5112491;28;19911;-75
2022/04/18 16:33:01;;;;;;;;;;;;;;;;;;5132861;28;19922;-75
2022/04/18 16:35:27;;;;;;;;;;;;;;;;;;5132221;28;19911;-74
2022/04/18 16:37:52;;;;;;;;;;;;;;;;;;5113809;28;19955;-74
2022/04/18 16:40:18;;;;;;;;;;;;;;;;;;5111692;28;20276;-74
2022/04/18 16:48:14;;;;;;;;;;;;;;;;;;5111481;28;20410;-74
2022/04/18 16:50:40;;;;;;;;;;;;;;;;;;5128109;28;19908;-74
2022/04/18 16:53:06;;;;;;;;;;;;;;;;;;5131035;28;19924;-74
2022/04/18 16:55:32;;;;;;;;;;;;;;;;;;5128933;27;20202;-74
2022/04/18 16:57:57;;;;;;;;;;;;;;;;;;5136435;27;19912;-74
2022/04/18 17:00:23;;;;;;;;;;;;;;;;;;5136143;27;19908;-74
2022/04/18 17:02:49;;;;;;;;;;;;;;;;;;5136652;27;19907;-74
2022/04/18 17:05:15;;;;;;;;;;;;;;;;;;5135645;27;19941;-74
2022/04/18 17:07:41;;;;;;;;;;;;;;;;;;5136485;27;19943;-74
2022/04/18 17:10:07;;;;;;;;;;;;;;;;;;5136484;27;19914;-74
2022/04/18 17:12:33;;;;;;;;;;;;;;;;;;5135558;27;19903;-74
2022/04/18 17:14:59;;;;;;;;;;;;;;;;;;5136316;27;19960;-74
2022/04/18 17:17:25;;;;;;;;;;;;;;;;;;5135493;27;19911;-74